Time;durP1;ratioP1;P1;durP2;ratioP2;P2;SDS_P1;SDS_P2;PMS_P1;PMS_P2;Temp;Humidity;BMP_temperature;BMP_pressure;BME280_temperature;BME280_humidity;BME280_pressure;Samples;Min_cycle;Max_cycle;Signal;HPM_P1;HPM_P2
2022/09/24 00:01:13;;;;;;;18.50;8.70;;;;;;;7.29;100.00;100595.09;1531440;93;21174;-77
2022/09/24 00:03:42;;;;;;;23.73;9.05;;;;;;;7.27;100.00;100594.54;1543998;92;21025;-77
2022/09/24 00:06:09;;;;;;;22.73;8.60;;;;;;;7.21;100.00;100593.63;1552078;91;21104;-84
2022/09/24 00:08:35;;;;;;;19.25;8.85;;;;;;;7.19;100.00;100594.91;1557473;92;21124;-76
2022/09/24 00:11:05;;;;;;;20.52;9.08;;;;;;;7.18;100.00;100595.97;1557654;90;21083;-77
2022/09/24 00:13:34;;;;;;;32.13;9.73;;;;;;;7.13;100.00;100593.98;1557759;92;21121;-77
2022/09/24 00:16:08;;;;;;;20.92;8.53;;;;;;;7.12;100.00;100592.37;1557502;92;21141;-75
2022/09/24 00:18:35;;;;;;;22.27;8.30;;;;;;;7.09;100.00;100592.84;1490037;95;21131;-78
2022/09/24 00:21:13;;;;;;;19.82;8.63;;;;;;;7.04;100.00;100593.53;1490183;96;21076;-77
2022/09/24 00:23:40;;;;;;;20.90;9.25;;;;;;;7.00;100.00;100592.39;1489977;96;21077;-84
2022/09/24 00:28:58;;;;;;;18.50;8.05;;;;;;;6.92;100.00;100591.94;1535352;93;21228;-83
2022/09/24 00:31:26;;;;;;;17.75;7.78;;;;;;;6.85;100.00;100584.53;1535767;93;21155;-78
2022/09/24 00:33:53;;;;;;;18.90;7.67;;;;;;;6.79;100.00;100584.45;1536085;93;21129;-81
2022/09/24 00:36:21;;;;;;;18.90;7.65;;;;;;;6.76;100.00;100587.56;1535778;93;21074;-81
2022/09/24 00:38:51;;;;;;;19.55;7.67;;;;;;;6.75;100.00;100583.80;1535849;93;21014;-76
2022/09/24 00:41:20;;;;;;;21.17;8.08;;;;;;;6.70;100.00;100580.47;1530295;93;21109;-75
2022/09/24 00:43:48;;;;;;;18.70;7.40;;;;;;;6.66;100.00;100575.84;1535807;93;21022;-81
2022/09/24 00:46:37;;;;;;;17.77;7.33;;;;;;;6.64;100.00;100577.92;1535775;93;21106;-81
2022/09/24 00:49:13;;;;;;;19.75;7.95;;;;;;;6.61;100.00;100576.53;1535773;92;21515;-78
2022/09/24 00:51:43;;;;;;;16.02;7.37;;;;;;;6.58;100.00;100576.99;1533675;93;21107;-77
2022/09/24 00:54:14;;;;;;;19.32;7.80;;;;;;;6.53;100.00;100579.05;1535827;93;21090;-83
2022/09/24 00:56:42;;;;;;;18.00;7.55;;;;;;;6.51;100.00;100577.66;1629232;87;21065;-75
2022/09/24 00:59:15;;;;;;;18.95;7.42;;;;;;;6.48;100.00;100576.25;1640589;86;22252;-80
2022/09/24 01:01:41;;;;;;;18.67;7.45;;;;;;;6.44;100.00;100576.94;1640105;87;21108;-75
2022/09/24 01:04:10;;;;;;;16.10;7.15;;;;;;;6.40;100.00;100576.59;1640155;87;21070;-81
2022/09/24 01:06:37;;;;;;;19.27;7.05;;;;;;;6.39;100.00;100580.33;1640410;87;21171;-75
2022/09/24 01:09:04;;;;;;;18.57;7.40;;;;;;;6.35;100.00;100580.48;1640310;87;21117;-77
2022/09/24 01:12:05;;;;;;;17.52;6.85;;;;;;;6.33;100.00;100579.92;1640502;87;21010;-75
2022/09/24 01:14:51;;;;;;;16.02;6.58;;;;;;;6.31;100.00;100581.47;1645233;84;21066;-79
2022/09/24 01:17:35;;;;;;;16.30;6.22;;;;;;;6.29;100.00;100580.88;1689991;84;20934;-80
2022/09/24 01:20:43;;;;;;;17.70;6.28;;;;;;;6.25;100.00;100574.38;1697333;84;21168;-75
2022/09/24 01:23:43;;;;;;;19.02;6.42;;;;;;;6.21;100.00;100571.07;1752653;81;21057;-77
2022/09/24 01:26:44;;;;;;;15.93;5.67;;;;;;;6.14;100.00;100573.83;1660322;86;21379;-81
2022/09/24 01:29:24;;;;;;;10.48;4.70;;;;;;;6.11;100.00;100562.25;1662761;86;21042;-80
2022/09/24 01:32:04;;;;;;;12.33;5.05;;;;;;;6.10;100.00;100563.31;1662617;86;21183;-75
2022/09/24 01:34:32;;;;;;;11.33;5.03;;;;;;;6.08;100.00;100562.72;1641576;86;21036;-78
2022/09/24 01:37:00;;;;;;;10.85;5.12;;;;;;;6.04;100.00;100564.23;1646998;86;21039;-76
2022/09/24 01:39:28;;;;;;;12.03;5.80;;;;;;;6.03;100.00;100562.09;1676444;84;21123;-81
2022/09/24 01:41:56;;;;;;;16.17;5.90;;;;;;;6.01;100.00;100562.84;1676303;84;21115;-77
2022/09/24 01:44:22;;;;;;;11.97;5.55;;;;;;;5.99;100.00;100563.58;1676252;84;21090;-78
2022/09/24 01:46:49;;;;;;;11.53;4.97;;;;;;;5.98;100.00;100566.50;1676526;84;21296;-78
2022/09/24 01:49:15;;;;;;;11.73;5.50;;;;;;;5.97;100.00;100558.16;1674524;83;21083;-78
2022/09/24 01:51:50;;;;;;;12.88;4.87;;;;;;;5.92;100.00;100557.50;1690657;84;21070;-79
2022/09/24 01:54:24;;;;;;;11.08;4.72;;;;;;;5.89;100.00;100558.77;1702069;84;21560;-78
2022/09/24 01:57:01;;;;;;;10.65;4.47;;;;;;;5.89;100.00;100555.28;1645088;87;21541;-77
2022/09/24 01:59:41;;;;;;;11.48;4.58;;;;;;;5.87;100.00;100552.02;1640819;87;21106;-78
2022/09/24 02:02:18;;;;;;;15.03;5.83;;;;;;;5.86;100.00;100553.07;1585891;90;21069;-78
2022/09/24 02:04:50;;;;;;;13.68;5.47;;;;;;;5.83;100.00;100548.19;1609341;89;21112;-78
2022/09/24 02:07:24;;;;;;;12.28;5.05;;;;;;;5.83;100.00;100542.84;1607242;88;21408;-84
2022/09/24 02:09:50;;;;;;;13.75;5.72;;;;;;;5.81;100.00;100540.38;1560331;92;21145;-76
2022/09/24 02:12:28;;;;;;;13.43;5.85;;;;;;;5.78;100.00;100542.70;1560197;92;21067;-83
2022/09/24 02:15:06;;;;;;;16.02;5.67;;;;;;;5.75;100.00;100546.64;1556852;91;21105;-76
2022/09/24 02:17:37;;;;;;;13.10;5.83;;;;;;;5.73;100.00;100547.91;1557765;92;21137;-77
2022/09/24 02:20:08;;;;;;;19.45;5.75;;;;;;;5.72;100.00;100547.62;1560277;92;21147;-78
2022/09/24 02:22:36;;;;;;;11.60;5.25;;;;;;;5.69;100.00;100549.70;1557475;92;21124;-78
2022/09/24 02:25:06;;;;;;;13.68;5.55;;;;;;;5.68;100.00;100556.63;1560274;92;21147;-77
2022/09/24 02:27:32;;;;;;;12.50;5.85;;;;;;;5.63;100.00;100549.28;1560040;92;21133;-77
2022/09/24 02:29:59;;;;;;;11.28;5.10;;;;;;;5.64;100.00;100557.59;1560589;91;21149;-75
2022/09/24 02:32:31;;;;;;;11.97;5.30;;;;;;;5.63;100.00;100558.64;1612865;88;21068;-77
2022/09/24 02:35:02;;;;;;;29.77;6.12;;;;;;;5.62;100.00;100554.88;1613353;88;22181;-83
2022/09/24 02:37:32;;;;;;;14.70;5.85;;;;;;;5.60;100.00;100554.28;1613041;88;21235;-78
2022/09/24 02:39:59;;;;;;;16.77;5.33;;;;;;;5.58;100.00;100551.81;1639433;87;21063;-82
2022/09/24 02:42:25;;;;;;;13.68;5.25;;;;;;;5.56;100.00;100561.10;1649944;87;21059;-76
2022/09/24 02:44:54;;;;;;;12.95;5.60;;;;;;;5.56;100.00;100554.42;1649960;87;21093;-81
2022/09/24 02:47:20;;;;;;;14.68;5.25;;;;;;;5.55;100.00;100560.30;1649817;87;21065;-78
2022/09/24 02:49:46;;;;;;;23.07;7.05;;;;;;;5.52;100.00;100562.09;1650140;87;21147;-77
2022/09/24 02:52:12;;;;;;;18.15;6.33;;;;;;;5.51;100.00;100561.80;1654689;86;21092;-78
2022/09/24 02:54:38;;;;;;;15.28;5.75;;;;;;;5.53;100.00;100569.58;1766399;81;21093;-82
2022/09/24 02:57:05;;;;;;;20.12;6.85;;;;;;;5.52;100.00;100571.97;1771221;81;21046;-83
2022/09/24 02:59:31;;;;;;;22.70;7.20;;;;;;;5.50;100.00;100568.20;1771222;81;21448;-75
2022/09/24 03:01:57;;;;;;;20.15;7.15;;;;;;;5.49;100.00;100574.56;1771194;81;21085;-78
2022/09/24 03:04:24;;;;;;;21.60;6.70;;;;;;;5.47;100.00;100572.63;1771169;81;21030;-77
2022/09/24 03:06:50;;;;;;;22.55;8.15;;;;;;;5.48;100.00;100576.14;1806357;78;20935;-76
2022/09/24 03:09:16;;;;;;;22.98;7.40;;;;;;;5.50;100.00;100574.88;1825033;78;20991;-75
2022/09/24 03:11:43;;;;;;;26.35;8.60;;;;;;;5.50;100.00;100578.89;1825116;78;21055;-77
2022/09/24 03:14:09;;;;;;;24.20;8.98;;;;;;;5.46;100.00;100575.83;1825353;78;21106;-78
2022/09/24 03:16:35;;;;;;;27.22;7.95;;;;;;;5.43;100.00;100576.81;1825227;78;21419;-75
2022/09/24 03:19:02;;;;;;;20.30;7.95;;;;;;;5.38;100.00;100582.84;1825419;78;21025;-76
2022/09/24 03:21:29;;;;;;;23.85;7.25;;;;;;;5.37;100.00;100581.20;1795334;78;20983;-75
2022/09/24 03:23:55;;;;;;;24.35;7.85;;;;;;;5.38;100.00;100588.19;1825212;78;21546;-78
2022/09/24 03:26:21;;;;;;;24.07;8.33;;;;;;;5.38;100.00;100586.86;1825329;78;21181;-75
2022/09/24 03:28:47;;;;;;;27.35;7.95;;;;;;;5.38;100.00;100585.52;1825235;78;21006;-80
2022/09/24 03:31:14;;;;;;;22.85;8.83;;;;;;;5.38;100.00;100585.52;1825357;78;21034;-77
2022/09/24 03:33:44;;;;;;;29.42;8.48;;;;;;;5.38;100.00;100583.34;1825242;78;21077;-82
2022/09/24 03:36:24;;;;;;;24.85;8.33;;;;;;;5.40;100.00;100579.94;1825397;78;21104;-77
2022/09/24 03:38:55;;;;;;;26.45;9.05;;;;;;;5.45;100.00;100585.42;1755976;80;21609;-76
2022/09/24 03:41:24;;;;;;;29.90;9.35;;;;;;;5.46;100.00;100586.52;1756000;80;21473;-78
2022/09/24 03:43:50;;;;;;;28.87;9.53;;;;;;;5.49;100.00;100585.26;1731085;81;21015;-78
2022/09/24 03:46:16;;;;;;;29.92;9.60;;;;;;;5.54;100.00;100583.25;1756091;81;21585;-78
2022/09/24 03:48:45;;;;;;;28.95;9.93;;;;;;;5.60;100.00;100585.02;1731186;81;21006;-82
2022/09/24 03:51:20;;;;;;;36.77;10.58;;;;;;;5.69;100.00;100589.81;1756107;81;21058;-75
2022/09/24 03:53:47;;;;;;;35.55;9.83;;;;;;;5.80;100.00;100586.08;1756072;81;21046;-76
2022/09/24 03:56:14;;;;;;;39.58;10.72;;;;;;;5.90;100.00;100583.65;1729900;81;20966;-76
2022/09/24 03:58:43;;;;;;;39.58;11.30;;;;;;;6.03;100.00;100590.17;1756267;81;21687;-76
2022/09/24 04:01:11;;;;;;;27.65;10.05;;;;;;;6.18;100.00;100590.23;1755916;81;38338;-80
2022/09/24 04:03:39;;;;;;;33.50;10.28;;;;;;;6.32;100.00;100586.30;1755965;81;21376;-81
2022/09/24 04:06:06;;;;;;;35.15;10.15;;;;;;;6.49;100.00;100591.25;1755705;81;21050;-80
2022/09/24 04:08:32;;;;;;;34.40;10.13;;;;;;;6.69;100.00;100598.12;1755979;81;21030;-78
2022/09/24 04:10:59;;;;;;;34.43;10.53;;;;;;;6.87;100.00;100597.98;1727038;81;21234;-79
2022/09/24 04:13:25;;;;;;;36.23;12.00;;;;;;;7.01;100.00;100598.03;1763800;80;21018;-78
2022/09/24 04:15:52;;;;;;;42.67;13.35;;;;;;;7.19;100.00;100594.38;1787097;80;21117;-82
2022/09/24 04:18:18;;;;;;;40.75;12.85;;;;;;;7.39;100.00;100591.82;1787466;80;21534;-82
2022/09/24 04:20:45;;;;;;;35.60;12.07;;;;;;;7.65;100.00;100595.80;1793036;78;21286;-83
2022/09/24 04:23:12;;;;;;;39.33;12.35;;;;;;;8.48;100.00;100584.86;1796183;78;21059;-79
2022/09/24 04:25:42;;;;;;;35.88;11.57;;;;;;;9.79;100.00;100577.83;1787847;78;21050;-82
2022/09/24 04:28:09;;;;;;;29.57;9.05;;;;;;;11.00;100.00;100574.11;1793830;78;21127;-82
2022/09/24 04:30:37;;;;;;;28.45;10.40;;;;;;;11.99;100.00;100571.69;1792299;78;21057;-79
2022/09/24 04:33:03;;;;;;;26.73;8.78;;;;;;;12.15;100.00;100572.52;1789822;78;21242;-82
2022/09/24 04:35:31;;;;;;;24.07;9.13;;;;;;;12.15;100.00;100579.27;1829920;77;21044;-84
2022/09/24 04:37:59;;;;;;;29.63;9.28;;;;;;;12.96;100.00;100580.20;1843970;77;20955;-78
2022/09/24 04:40:26;;;;;;;20.65;9.10;;;;;;;12.96;100.00;100580.20;1866217;75;21133;-77
2022/09/24 04:42:53;;;;;;;20.85;8.25;;;;;;;13.53;100.00;100578.06;1849396;77;21463;-82
2022/09/24 04:45:20;;;;;;;20.02;8.30;;;;;;;14.51;100.00;100577.06;1858942;77;21006;-84
2022/09/24 04:50:20;;;;;;;18.37;7.40;;;;;;;15.89;100.00;100577.25;1703473;82;21167;-81
2022/09/24 04:52:46;;;;;;;33.65;7.22;;;;;;;17.13;100.00;100585.66;1694693;83;21301;-85
2022/09/24 04:55:12;;;;;;;21.07;6.75;;;;;;;18.40;100.00;100571.55;1703007;83;21069;-77
2022/09/24 04:57:40;;;;;;;12.90;6.22;;;;;;;19.45;100.00;100574.91;1703062;83;21076;-80
2022/09/24 05:00:13;;;;;;;13.78;5.95;;;;;;;20.20;100.00;100578.27;1696893;83;21073;-80
2022/09/24 05:02:39;;;;;;;16.45;5.53;;;;;;;21.05;100.00;100579.45;1674846;85;21132;-80
2022/09/24 05:05:06;;;;;;;12.23;5.35;;;;;;;21.98;100.00;100573.41;1717976;82;21943;-79
2022/09/24 05:07:32;;;;;;;16.23;5.60;;;;;;;22.90;100.00;100575.77;1719123;82;21106;-84
2022/09/24 05:09:58;;;;;;;9.38;4.62;;;;;;;23.41;97.82;100574.02;1699163;84;21043;-82
2022/09/24 05:12:25;;;;;;;9.65;5.08;;;;;;;23.87;95.03;100576.56;1699304;84;21586;-80
2022/09/24 05:14:51;;;;;;;9.38;4.92;;;;;;;24.84;91.98;100572.45;1700016;83;21691;-81
2022/09/24 05:17:17;;;;;;;11.40;5.28;;;;;;;25.36;81.92;100573.28;1701044;82;21046;-82
2022/09/24 05:19:44;;;;;;;9.03;4.60;;;;;;;25.52;76.58;100570.45;1702210;84;21020;-83
2022/09/24 05:22:10;;;;;;;10.13;4.70;;;;;;;26.19;68.92;100568.86;1702556;84;21131;-83
2022/09/24 05:24:36;;;;;;;10.30;4.37;;;;;;;26.11;66.21;100567.91;1702670;84;20957;-83
2022/09/24 05:27:09;;;;;;;8.93;4.40;;;;;;;25.21;61.17;100570.78;1702734;84;22253;-80
2022/09/24 05:29:37;;;;;;;;;;;;;;;24.37;61.97;100567.70;1696615;82;21532;-84
2022/09/24 05:32:07;;;;;;;9.48;4.40;;;;;;;24.45;56.71;100575.03;1675238;84;20342;-82
2022/09/24 05:34:34;;;;;;;6.60;4.10;;;;;;;25.77;66.41;100575.13;1673117;84;21049;-82
2022/09/24 05:37:01;;;;;;;7.45;4.58;;;;;;;26.86;61.12;100572.02;1673286;85;21568;-81
2022/09/24 05:39:28;;;;;;;9.78;5.12;;;;;;;27.88;58.61;100570.27;1673737;84;21077;-82
2022/09/24 05:41:56;;;;;;;10.40;5.40;;;;;;;28.62;52.51;100575.02;1673402;85;21082;-79
2022/09/24 05:44:22;;;;;;;11.05;6.00;;;;;;;28.59;49.63;100576.34;1673342;85;21113;-80
2022/09/24 05:46:50;;;;;;;10.88;6.22;;;;;;;28.43;49.64;100574.63;1718747;79;20970;-80
2022/09/24 05:49:16;;;;;;;10.30;6.75;;;;;;;28.99;48.84;100576.86;1789282;79;21037;-81
2022/09/24 05:51:43;;;;;;;11.15;6.78;;;;;;;29.42;47.74;100573.79;1788314;78;21017;-83
2022/09/24 05:54:12;;;;;;;14.33;7.50;;;;;;;29.90;46.96;100576.98;1784492;78;21049;-81
2022/09/24 05:56:38;;;;;;;12.03;7.53;;;;;;;30.12;44.73;100580.63;1788659;79;21506;-85
2022/09/24 05:59:05;;;;;;;15.93;7.83;;;;;;;30.08;43.80;100574.25;1789245;79;21076;-81
2022/09/24 06:01:32;;;;;;;16.30;8.25;;;;;;;29.93;42.31;100575.41;1788795;79;20998;-80
2022/09/24 06:03:59;;;;;;;16.82;8.20;;;;;;;29.45;42.16;100579.16;1789074;79;20989;-85
2022/09/24 06:06:26;;;;;;;15.50;9.13;;;;;;;29.78;42.76;100585.67;1789076;79;21916;-85
2022/09/24 06:08:53;;;;;;;21.57;9.70;;;;;;;30.39;41.90;100581.09;1776113;79;21079;-85
2022/09/24 06:11:22;;;;;;;16.05;8.75;;;;;;;29.59;40.81;100588.13;1765722;79;21082;-85
2022/09/24 06:13:50;;;;;;;15.20;8.38;;;;;;;28.28;41.50;100593.67;1765683;79;20954;-82
2022/09/24 06:16:16;;;;;;;22.73;9.88;;;;;;;27.01;42.03;100592.39;1765467;78;21089;-84
2022/09/24 06:18:43;;;;;;;23.92;10.30;;;;;;;25.70;43.21;100601.98;1764176;80;21051;-80
2022/09/24 06:21:13;;;;;;;18.75;9.70;;;;;;;24.34;44.61;100600.67;1780620;78;21368;-82
2022/09/24 06:23:44;;;;;;;24.37;9.78;;;;;;;23.05;46.60;100608.67;1795163;78;21063;-85
2022/09/24 06:26:12;;;;;;;21.50;9.85;;;;;;;22.05;48.86;100603.04;1787957;79;21042;-82
2022/09/24 06:28:39;;;;;;;21.25;11.08;;;;;;;21.27;52.21;100598.36;1813361;77;21523;-82
2022/09/24 06:31:06;;;;;;;19.25;10.00;;;;;;;21.01;55.72;100605.34;1822456;77;21027;-82
2022/09/24 06:33:33;;;;;;;21.37;10.95;;;;;;;20.81;58.31;100603.34;1846649;76;21672;-78
2022/09/24 06:36:01;;;;;;;21.85;12.30;;;;;;;20.89;64.15;100614.84;1853765;76;20991;-82
2022/09/24 06:38:29;;;;;;;23.07;12.07;;;;;;;21.35;64.87;100599.99;1853590;76;21507;-82
2022/09/24 06:41:00;;;;;;;23.92;12.73;;;;;;;22.40;61.91;100600.78;1853768;76;21023;-83
2022/09/24 06:43:27;;;;;;;26.55;15.15;;;;;;;23.01;59.47;100599.52;1853893;76;21512;-79
2022/09/24 06:45:58;;;;;;;21.80;12.75;;;;;;;23.39;58.24;100594.80;1853524;76;21007;-82
2022/09/24 06:48:25;;;;;;;25.48;13.93;;;;;;;24.22;56.64;100597.41;1833510;77;21057;-80
2022/09/24 06:50:53;;;;;;;28.55;15.13;;;;;;;24.68;54.94;100596.47;1830799;77;20999;-85
2022/09/24 06:53:20;;;;;;;27.27;16.07;;;;;;;24.49;52.42;100590.27;1834081;77;22031;-83
2022/09/24 06:55:47;;;;;;;38.45;19.55;;;;;;;23.86;53.57;100599.75;1853679;76;21027;-82
2022/09/24 06:58:21;;;;;;;47.65;23.62;;;;;;;23.63;55.11;100606.32;1853167;76;21015;-82
2022/09/24 07:01:01;;;;;;;51.83;24.30;;;;;;;23.41;54.17;100607.61;1853458;76;21027;-83
2022/09/24 07:03:30;;;;;;;47.50;23.42;;;;;;;22.69;54.19;100608.05;1853380;76;21042;-86
2022/09/24 07:06:03;;;;;;;48.42;21.85;;;;;;;22.96;54.58;100613.48;1847526;76;21560;-82
2022/09/24 07:08:30;;;;;;;43.13;22.30;;;;;;;23.77;55.54;100608.95;1802731;78;21020;-84
2022/09/24 07:10:57;;;;;;;48.78;22.37;;;;;;;24.40;54.12;100608.89;1831886;78;21078;-85
2022/09/24 07:13:23;;;;;;;50.50;23.95;;;;;;;24.66;52.18;100607.84;1844055;77;21024;-84
2022/09/24 07:15:51;;;;;;;56.88;27.75;;;;;;;25.36;52.63;100609.94;1843915;77;21608;-81
2022/09/24 07:18:19;;;;;;;57.93;27.58;;;;;;;25.71;50.18;100611.09;1848272;77;20953;-83
2022/09/24 07:20:53;;;;;;;62.78;29.15;;;;;;;25.68;48.75;100610.41;1848187;77;21053;-84
2022/09/24 07:23:20;;;;;;;60.12;26.82;;;;;;;25.59;46.77;100612.81;1711860;82;22248;-84
2022/09/24 07:25:47;;;;;;;55.15;26.57;;;;;;;25.90;48.53;100604.80;1705261;83;21649;-84
2022/09/24 07:28:14;;;;;;;53.02;25.55;;;;;;;26.12;47.88;100607.38;1703407;83;22048;-84
2022/09/24 07:30:41;;;;;;;52.15;24.52;;;;;;;26.62;47.46;100604.18;1684883;84;21170;-84
2022/09/24 07:33:08;;;;;;;46.65;22.45;;;;;;;26.90;46.31;100599.72;1685162;85;21165;-84
2022/09/24 07:35:38;;;;;;;45.67;23.20;;;;;;;26.70;44.68;100595.64;1685235;84;20997;-84
2022/09/24 07:38:10;;;;;;;47.20;23.00;;;;;;;25.87;44.56;100603.55;1685316;85;21107;-83
2022/09/24 07:40:37;;;;;;;55.78;24.47;;;;;;;25.52;46.15;100615.99;1685091;84;21036;-85
2022/09/24 07:43:03;;;;;;;48.60;23.15;;;;;;;25.63;45.81;100609.34;1685259;85;21178;-84
2022/09/24 07:45:31;;;;;;;51.85;24.90;;;;;;;25.32;46.06;100614.56;1685323;85;22202;-83
2022/09/24 07:48:03;;;;;;;54.15;25.30;;;;;;;25.02;46.05;100614.81;1728772;80;20972;-81
2022/09/24 07:50:33;;;;;;;60.23;26.62;;;;;;;24.57;46.88;100613.31;1769429;79;21015;-84
2022/09/24 07:52:59;;;;;;;63.50;29.65;;;;;;;24.02;47.35;100615.73;1743389;81;21125;-84
2022/09/24 07:55:27;;;;;;;67.72;30.00;;;;;;;23.16;47.67;100620.59;1743680;82;21005;-84
2022/09/24 07:57:55;;;;;;;63.05;29.75;;;;;;;22.28;49.52;100623.52;1743655;81;21096;-83
2022/09/24 08:00:23;;;;;;;53.08;24.18;;;;;;;21.49;51.19;100621.14;1748941;80;21091;-83
2022/09/24 08:02:52;;;;;;;48.73;22.17;;;;;;;20.82;53.70;100625.48;1760751;80;21019;-83
2022/09/24 08:05:18;;;;;;;50.88;23.45;;;;;;;20.33;55.41;100625.76;1760594;80;21087;-82
2022/09/24 08:07:54;;;;;;;58.68;23.83;;;;;;;19.94;57.47;100624.00;1760970;80;21023;-82
2022/09/24 08:10:22;;;;;;;55.85;23.12;;;;;;;19.37;59.35;100624.89;1754595;81;21472;-83
2022/09/24 08:12:48;;;;;;;48.05;21.95;;;;;;;18.82;64.48;100632.99;1755919;81;20955;-83
2022/09/24 08:15:14;;;;;;;49.13;20.10;;;;;;;18.43;71.18;100628.23;1756012;81;21069;-82
2022/09/24 08:17:41;;;;;;;43.85;18.32;;;;;;;18.26;76.57;100626.75;1755966;81;21064;-82
2022/09/24 08:20:09;;;;;;;39.98;17.35;;;;;;;18.14;83.66;100633.56;1729346;81;21473;-82
2022/09/24 08:22:35;;;;;;;41.40;18.57;;;;;;;17.99;86.02;100627.13;1765738;80;21143;-82
2022/09/24 08:25:03;;;;;;;40.55;17.17;;;;;;;17.98;86.29;100626.08;1765533;80;21170;-82
2022/09/24 08:27:31;;;;;;;41.92;16.80;;;;;;;17.98;87.44;100628.25;1765606;80;21534;-82
2022/09/24 08:29:59;;;;;;;38.80;16.97;;;;;;;17.93;91.27;100629.72;1793912;78;21537;-82
2022/09/24 08:32:28;;;;;;;41.08;15.23;;;;;;;17.68;94.46;100631.89;1774624;78;21499;-82
2022/09/24 08:34:54;;;;;;;35.20;13.55;;;;;;;17.55;96.12;100639.52;1798693;78;22299;-82
2022/09/24 08:37:20;;;;;;;30.17;13.40;;;;;;;17.41;100.00;100640.92;1797419;79;21046;-82
2022/09/24 08:39:47;;;;;;;30.97;12.63;;;;;;;17.34;100.00;100638.34;1797366;78;21030;-82
2022/09/24 08:42:36;;;;;;;31.27;12.47;;;;;;;17.37;98.89;100633.65;1797068;78;21033;-82
2022/09/24 08:47:57;;;;;;;28.73;12.25;;;;;;;17.08;100.00;100629.31;1797046;78;21046;-81
2022/09/24 08:50:27;;;;;;;31.02;12.85;;;;;;;17.03;100.00;100625.36;1674317;85;21010;-81
2022/09/24 08:53:20;;;;;;;31.70;12.88;;;;;;;16.99;100.00;100629.77;1674495;84;21052;-81
2022/09/24 08:55:58;;;;;;;39.53;11.55;;;;;;;17.12;100.00;100622.17;1564438;90;21077;-82
2022/09/24 08:58:48;;;;;;;26.52;11.88;;;;;;;17.23;100.00;100625.48;1564535;91;21001;-81
2022/09/24 09:01:37;;;;;;;30.05;13.43;;;;;;;17.36;100.00;100622.52;1564350;91;21216;-81
2022/09/24 09:04:38;;;;;;;26.97;12.70;;;;;;;17.16;100.00;100622.37;1540808;93;21098;-81
2022/09/24 09:07:24;;;;;;;25.88;11.25;;;;;;;17.13;100.00;100621.61;1539782;92;21624;-81
2022/09/24 09:10:04;;;;;;;25.70;10.82;;;;;;;17.09;100.00;100615.14;1551169;90;21449;-81
2022/09/24 09:12:35;;;;;;;24.80;11.25;;;;;;;17.15;100.00;100618.84;1534196;92;21605;-81
2022/09/24 09:15:12;;;;;;;24.80;11.73;;;;;;;17.08;100.00;100615.70;1553864;92;22007;-81
2022/09/24 09:17:49;;;;;;;24.67;10.68;;;;;;;17.06;100.00;100615.22;1538429;93;21156;-83
2022/09/24 09:20:26;;;;;;;20.68;8.68;;;;;;;17.30;100.00;100611.48;1536175;93;21200;-82
2022/09/24 09:22:53;;;;;;;22.25;9.55;;;;;;;18.19;100.00;100604.58;1538235;93;21041;-83
2022/09/24 09:25:27;;;;;;;18.17;9.08;;;;;;;18.58;100.00;100604.64;1538114;93;21088;-83
2022/09/24 09:28:16;;;;;;;20.00;9.25;;;;;;;19.07;98.77;100601.99;1539110;90;21608;-83
2022/09/24 09:31:19;;;;;;;25.32;10.98;;;;;;;19.23;92.39;100599.05;1555661;91;21462;-78
2022/09/24 09:34:08;;;;;;;19.73;8.90;;;;;;;19.32;89.69;100599.06;1610223;86;21094;-83
2022/09/24 09:37:11;;;;;;;16.02;8.38;;;;;;;19.81;87.34;100591.59;1632541;86;21042;-78
2022/09/24 09:40:03;;;;;;;17.23;8.68;;;;;;;19.96;84.16;100595.20;1644981;86;21043;-81
2022/09/24 09:42:36;;;;;;;22.50;10.00;;;;;;;19.96;81.92;100597.14;1687367;83;21554;-80
2022/09/24 09:45:36;;;;;;;20.32;9.85;;;;;;;19.84;78.89;100590.95;1702211;83;21030;-79
2022/09/24 09:48:03;;;;;;;20.80;9.33;;;;;;;19.67;82.91;100595.05;1683033;83;21131;-79
2022/09/24 09:50:39;;;;;;;17.75;9.25;;;;;;;20.00;86.24;100595.39;1698659;83;21145;-83
2022/09/24 09:53:26;;;;;;;18.42;9.55;;;;;;;20.33;80.43;100594.85;1696611;82;21085;-79
2022/09/24 09:56:03;;;;;;;18.17;8.88;;;;;;;20.49;76.92;100595.92;1698112;82;22229;-83
2022/09/24 09:58:35;;;;;;;19.55;9.63;;;;;;;20.50;76.94;100590.70;1688731;84;21088;-80
2022/09/24 10:01:10;;;;;;;21.07;10.05;;;;;;;20.51;75.84;100587.39;1693803;84;21084;-80
2022/09/24 10:03:51;;;;;;;23.32;12.10;;;;;;;20.61;78.46;100589.80;1651109;85;21030;-84
2022/09/24 10:06:29;;;;;;;25.57;12.85;;;;;;;20.89;76.11;100588.02;1661462;84;21032;-81
2022/09/24 10:09:21;;;;;;;33.83;14.18;;;;;;;21.01;74.03;100592.22;1644841;85;21747;-84
2022/09/24 10:11:47;;;;;;;23.35;12.45;;;;;;;20.89;71.77;100586.64;1644847;85;21020;-81
2022/09/24 10:14:18;;;;;;;24.90;12.98;;;;;;;20.94;73.80;100584.52;1659254;85;21089;-83
2022/09/24 10:16:48;;;;;;;26.62;12.53;;;;;;;21.04;71.74;100573.17;1658277;86;21033;-83
2022/09/24 10:19:25;;;;;;;19.98;11.30;;;;;;;20.91;70.65;100577.50;1653778;86;21028;-83
2022/09/24 10:21:56;;;;;;;17.17;10.30;;;;;;;20.73;69.64;100574.84;1645476;85;21726;-82
2022/09/24 10:24:26;;;;;;;22.15;11.60;;;;;;;20.46;70.31;100576.61;1645782;86;21072;-83
2022/09/24 10:26:53;;;;;;;17.02;10.25;;;;;;;20.14;71.20;100563.72;1647017;87;21123;-85
2022/09/24 10:32:17;;;;;;;14.83;7.92;;;;;;;20.02;73.65;100562.22;1657334;85;21057;-83
2022/09/24 10:35:04;;;;;;;11.57;7.12;;;;;;;19.91;72.78;100557.09;1572759;89;21183;-80
2022/09/24 10:37:30;;;;;;;15.93;7.30;;;;;;;19.81;73.54;100551.94;1591327;88;21716;-83
2022/09/24 10:40:14;;;;;;;13.25;6.90;;;;;;;19.61;74.03;100556.09;1591611;88;21765;-80
2022/09/24 10:42:40;;;;;;;11.25;6.37;;;;;;;19.55;73.13;100558.75;1593965;88;21057;-83
2022/09/24 10:45:13;;;;;;;12.10;6.62;;;;;;;19.37;75.02;100562.03;1586731;89;21597;-83
2022/09/24 10:48:09;;;;;;;11.10;5.95;;;;;;;19.17;76.00;100564.00;1577089;88;21198;-84
2022/09/24 10:50:43;;;;;;;10.13;5.92;;;;;;;19.02;77.32;100565.25;1500522;94;21066;-85
2022/09/24 10:53:47;;;;;;;15.45;5.92;;;;;;;18.73;79.73;100565.77;1503949;94;21654;-83
2022/09/24 10:56:34;;;;;;;12.35;5.50;;;;;;;18.41;82.14;100570.42;1529489;93;21104;-82
2022/09/24 10:59:17;;;;;;;10.48;5.90;;;;;;;18.16;85.29;100574.06;1526906;93;21156;-82
2022/09/24 11:02:05;;;;;;;;;;;;;;;18.04;87.92;100568.38;1534643;93;21335;-84
2022/09/24 11:04:51;;;;;;;10.85;5.72;;;;;;;17.89;96.10;100573.64;1552350;92;20138;-83
2022/09/24 11:07:34;;;;;;;12.15;5.60;;;;;;;17.86;96.32;100576.98;1504542;93;21141;-83
2022/09/24 11:10:22;;;;;;;14.38;6.55;;;;;;;17.72;95.43;100576.20;1527417;92;21168;-82
2022/09/24 11:13:11;;;;;;;10.80;5.95;;;;;;;17.69;97.18;100575.45;1520080;94;21204;-83
2022/09/24 11:16:22;;;;;;;11.97;6.17;;;;;;;17.56;97.30;100577.11;1471710;97;21173;-82
2022/09/24 11:19:02;;;;;;;8.98;5.58;;;;;;;17.37;100.00;100577.80;1471850;97;21147;-83
2022/09/24 11:22:05;;;;;;;12.40;4.70;;;;;;;17.28;100.00;100576.92;1474630;97;21567;-83
2022/09/24 11:25:05;;;;;;;7.00;4.30;;;;;;;17.37;100.00;100579.17;1474536;97;21177;-82
2022/09/24 11:27:56;;;;;;;5.20;3.00;;;;;;;17.24;98.90;100581.61;1532792;92;21740;-82
2022/09/24 11:30:27;;;;;;;4.50;2.67;;;;;;;17.05;97.85;100592.36;1543977;91;21127;-81
2022/09/24 11:33:33;;;;;;;3.80;2.20;;;;;;;16.95;96.91;100589.30;1494306;96;21253;-83
2022/09/24 11:36:28;;;;;;;5.00;2.25;;;;;;;16.90;95.39;100588.03;1503944;95;21065;-83
2022/09/24 11:39:21;;;;;;;4.87;1.85;;;;;;;16.74;92.14;100592.94;1494712;96;21565;-83
2022/09/24 11:42:15;;;;;;;4.83;2.35;;;;;;;16.58;91.95;100602.72;1504190;95;21113;-83
2022/09/24 11:45:28;;;;;;;5.08;2.50;;;;;;;16.43;93.16;100602.20;1525296;91;21532;-83
2022/09/24 11:48:05;;;;;;;5.90;2.55;;;;;;;16.37;95.86;100605.56;1590670;90;21032;-83
2022/09/24 11:51:07;;;;;;;7.22;2.70;;;;;;;16.29;96.11;100606.23;1598030;89;21039;-83